sensor_id;sensor_type;location;lat;lon;timestamp;P1;durP1;ratioP1;P2;durP2;ratioP2
84334;SDS011;74512;51.190;3.198;2023-12-07T00:01:10;22.50;;;14.43;;
84334;SDS011;74512;51.190;3.198;2023-12-07T00:03:36;30.30;;;16.83;;
84334;SDS011;74512;51.190;3.198;2023-12-07T00:06:01;30.40;;;16.92;;
84334;SDS011;74512;51.190;3.198;2023-12-07T00:08:27;45.50;;;18.65;;
84334;SDS011;74512;51.190;3.198;2023-12-07T00:10:53;30.95;;;16.40;;
84334;SDS011;74512;51.190;3.198;2023-12-07T00:13:19;33.47;;;16.30;;
84334;SDS011;74512;51.190;3.198;2023-12-07T00:15:44;36.72;;;17.58;;
84334;SDS011;74512;51.190;3.198;2023-12-07T00:18:10;22.08;;;13.13;;
84334;SDS011;74512;51.190;3.198;2023-12-07T00:20:36;48.92;;;17.23;;
84334;SDS011;74512;51.190;3.198;2023-12-07T00:23:01;26.35;;;13.68;;
84334;SDS011;74512;51.190;3.198;2023-12-07T00:25:27;23.30;;;12.35;;
84334;SDS011;74512;51.190;3.198;2023-12-07T00:27:53;28.65;;;12.45;;
84334;SDS011;74512;51.190;3.198;2023-12-07T00:30:18;24.20;;;11.55;;
84334;SDS011;74512;51.190;3.198;2023-12-07T00:32:44;19.55;;;10.70;;
84334;SDS011;74512;51.190;3.198;2023-12-07T00:35:11;27.77;;;10.32;;
84334;SDS011;74512;51.190;3.198;2023-12-07T00:37:36;22.52;;;10.90;;
84334;SDS011;74512;51.190;3.198;2023-12-07T00:40:02;30.77;;;9.90;;
84334;SDS011;74512;51.190;3.198;2023-12-07T00:42:29;19.27;;;9.40;;
84334;SDS011;74512;51.190;3.198;2023-12-07T00:44:54;43.20;;;11.55;;
84334;SDS011;74512;51.190;3.198;2023-12-07T00:47:20;17.23;;;8.65;;
84334;SDS011;74512;51.190;3.198;2023-12-07T00:49:46;17.50;;;9.65;;
84334;SDS011;74512;51.190;3.198;2023-12-07T00:52:12;18.25;;;9.02;;
84334;SDS011;74512;51.190;3.198;2023-12-07T00:54:38;30.25;;;9.25;;
84334;SDS011;74512;51.190;3.198;2023-12-07T00:57:04;15.25;;;8.73;;
84334;SDS011;74512;51.190;3.198;2023-12-07T00:59:30;25.40;;;10.30;;
84334;SDS011;74512;51.190;3.198;2023-12-07T01:02:01;17.33;;;8.73;;
84334;SDS011;74512;51.190;3.198;2023-12-07T01:04:33;31.40;;;11.15;;
84334;SDS011;74512;51.190;3.198;2023-12-07T01:06:59;22.17;;;9.57;;
84334;SDS011;74512;51.190;3.198;2023-12-07T01:09:25;13.85;;;7.93;;
84334;SDS011;74512;51.190;3.198;2023-12-07T01:11:51;29.10;;;11.50;;
84334;SDS011;74512;51.190;3.198;2023-12-07T01:14:17;23.58;;;9.98;;
84334;SDS011;74512;51.190;3.198;2023-12-07T01:16:44;21.25;;;9.57;;
84334;SDS011;74512;51.190;3.198;2023-12-07T01:19:10;20.08;;;9.27;;
84334;SDS011;74512;51.190;3.198;2023-12-07T01:21:39;26.75;;;9.63;;
84334;SDS011;74512;51.190;3.198;2023-12-07T01:24:07;14.88;;;7.65;;
84334;SDS011;74512;51.190;3.198;2023-12-07T01:26:33;31.17;;;10.65;;
84334;SDS011;74512;51.190;3.198;2023-12-07T01:28:59;26.92;;;11.35;;
84334;SDS011;74512;51.190;3.198;2023-12-07T01:31:24;29.90;;;11.25;;
84334;SDS011;74512;51.190;3.198;2023-12-07T01:33:50;14.98;;;8.13;;
84334;SDS011;74512;51.190;3.198;2023-12-07T01:36:16;21.00;;;8.13;;
84334;SDS011;74512;51.190;3.198;2023-12-07T01:38:41;35.33;;;9.75;;
84334;SDS011;74512;51.190;3.198;2023-12-07T01:41:08;18.65;;;8.77;;
84334;SDS011;74512;51.190;3.198;2023-12-07T01:43:34;16.65;;;7.13;;
84334;SDS011;74512;51.190;3.198;2023-12-07T01:46:00;20.85;;;9.77;;
84334;SDS011;74512;51.190;3.198;2023-12-07T01:48:26;13.35;;;7.55;;
84334;SDS011;74512;51.190;3.198;2023-12-07T01:50:54;11.52;;;6.22;;
84334;SDS011;74512;51.190;3.198;2023-12-07T01:53:21;21.13;;;9.13;;
84334;SDS011;74512;51.190;3.198;2023-12-07T01:55:48;24.95;;;9.02;;
84334;SDS011;74512;51.190;3.198;2023-12-07T01:58:16;35.55;;;11.02;;
84334;SDS011;74512;51.190;3.198;2023-12-07T02:00:43;28.38;;;10.40;;
84334;SDS011;74512;51.190;3.198;2023-12-07T02:03:09;23.00;;;10.15;;
84334;SDS011;74512;51.190;3.198;2023-12-07T02:05:36;33.92;;;11.00;;
84334;SDS011;74512;51.190;3.198;2023-12-07T02:08:02;27.27;;;10.18;;
84334;SDS011;74512;51.190;3.198;2023-12-07T02:10:28;21.40;;;9.18;;
84334;SDS011;74512;51.190;3.198;2023-12-07T02:12:54;37.05;;;11.70;;
84334;SDS011;74512;51.190;3.198;2023-12-07T02:15:20;35.30;;;12.93;;
84334;SDS011;74512;51.190;3.198;2023-12-07T02:18:32;22.77;;;10.27;;
84334;SDS011;74512;51.190;3.198;2023-12-07T02:23:29;34.65;;;11.55;;
84334;SDS011;74512;51.190;3.198;2023-12-07T02:25:58;30.42;;;11.30;;
84334;SDS011;74512;51.190;3.198;2023-12-07T02:28:28;42.30;;;13.90;;
84334;SDS011;74512;51.190;3.198;2023-12-07T02:30:54;32.28;;;11.02;;
84334;SDS011;74512;51.190;3.198;2023-12-07T02:33:19;40.63;;;11.93;;
84334;SDS011;74512;51.190;3.198;2023-12-07T02:35:45;31.77;;;11.73;;
84334;SDS011;74512;51.190;3.198;2023-12-07T02:38:11;29.73;;;10.68;;
84334;SDS011;74512;51.190;3.198;2023-12-07T02:40:37;40.55;;;13.05;;
84334;SDS011;74512;51.190;3.198;2023-12-07T02:43:05;40.70;;;14.93;;
84334;SDS011;74512;51.190;3.198;2023-12-07T02:45:31;44.25;;;13.88;;
84334;SDS011;74512;51.190;3.198;2023-12-07T02:47:58;52.78;;;14.30;;
84334;SDS011;74512;51.190;3.198;2023-12-07T02:50:23;42.17;;;13.70;;
84334;SDS011;74512;51.190;3.198;2023-12-07T02:52:49;58.47;;;16.13;;
84334;SDS011;74512;51.190;3.198;2023-12-07T02:55:15;67.75;;;16.63;;
84334;SDS011;74512;51.190;3.198;2023-12-07T02:57:41;29.58;;;12.07;;
84334;SDS011;74512;51.190;3.198;2023-12-07T03:00:06;32.72;;;11.43;;
84334;SDS011;74512;51.190;3.198;2023-12-07T03:02:36;40.92;;;14.07;;
84334;SDS011;74512;51.190;3.198;2023-12-07T03:05:03;55.30;;;15.30;;
84334;SDS011;74512;51.190;3.198;2023-12-07T03:07:29;49.25;;;16.65;;
84334;SDS011;74512;51.190;3.198;2023-12-07T03:09:55;54.08;;;16.98;;
84334;SDS011;74512;51.190;3.198;2023-12-07T03:12:21;76.40;;;17.73;;
84334;SDS011;74512;51.190;3.198;2023-12-07T03:14:48;78.22;;;16.83;;
84334;SDS011;74512;51.190;3.198;2023-12-07T03:17:14;76.30;;;17.77;;
84334;SDS011;74512;51.190;3.198;2023-12-07T03:19:40;81.45;;;19.98;;
84334;SDS011;74512;51.190;3.198;2023-12-07T03:22:06;94.20;;;20.40;;
84334;SDS011;74512;51.190;3.198;2023-12-07T03:24:35;43.78;;;13.18;;
84334;SDS011;74512;51.190;3.198;2023-12-07T03:27:02;72.13;;;19.85;;
84334;SDS011;74512;51.190;3.198;2023-12-07T03:29:27;65.07;;;17.45;;
84334;SDS011;74512;51.190;3.198;2023-12-07T03:31:53;72.40;;;18.58;;
84334;SDS011;74512;51.190;3.198;2023-12-07T03:34:19;67.18;;;18.67;;
84334;SDS011;74512;51.190;3.198;2023-12-07T03:36:45;46.70;;;17.13;;
84334;SDS011;74512;51.190;3.198;2023-12-07T03:39:11;58.10;;;18.42;;
84334;SDS011;74512;51.190;3.198;2023-12-07T03:41:38;59.75;;;19.63;;
84334;SDS011;74512;51.190;3.198;2023-12-07T03:44:03;48.10;;;15.95;;
84334;SDS011;74512;51.190;3.198;2023-12-07T03:46:29;60.75;;;18.80;;
84334;SDS011;74512;51.190;3.198;2023-12-07T03:48:55;71.75;;;22.63;;
84334;SDS011;74512;51.190;3.198;2023-12-07T03:51:20;45.47;;;17.15;;
84334;SDS011;74512;51.190;3.198;2023-12-07T03:53:46;52.17;;;18.20;;
84334;SDS011;74512;51.190;3.198;2023-12-07T03:56:22;34.67;;;13.50;;
84334;SDS011;74512;51.190;3.198;2023-12-07T03:58:54;54.53;;;19.83;;
84334;SDS011;74512;51.190;3.198;2023-12-07T04:01:27;59.00;;;20.00;;
84334;SDS011;74512;51.190;3.198;2023-12-07T04:03:54;67.25;;;21.90;;
84334;SDS011;74512;51.190;3.198;2023-12-07T04:06:21;60.75;;;21.40;;
84334;SDS011;74512;51.190;3.198;2023-12-07T04:08:47;61.83;;;22.02;;
84334;SDS011;74512;51.190;3.198;2023-12-07T04:11:14;57.15;;;20.13;;
84334;SDS011;74512;51.190;3.198;2023-12-07T04:13:40;54.25;;;20.67;;
84334;SDS011;74512;51.190;3.198;2023-12-07T04:16:06;48.05;;;15.82;;
84334;SDS011;74512;51.190;3.198;2023-12-07T04:18:32;66.57;;;20.83;;
84334;SDS011;74512;51.190;3.198;2023-12-07T04:20:58;74.75;;;20.95;;
84334;SDS011;74512;51.190;3.198;2023-12-07T04:23:24;37.50;;;14.02;;
84334;SDS011;74512;51.190;3.198;2023-12-07T04:25:50;51.05;;;16.95;;
84334;SDS011;74512;51.190;3.198;2023-12-07T04:28:15;37.08;;;12.57;;
84334;SDS011;74512;51.190;3.198;2023-12-07T04:30:41;49.78;;;18.40;;
84334;SDS011;74512;51.190;3.198;2023-12-07T04:33:07;53.78;;;19.85;;
84334;SDS011;74512;51.190;3.198;2023-12-07T04:35:32;50.22;;;16.23;;
84334;SDS011;74512;51.190;3.198;2023-12-07T04:37:59;52.83;;;17.75;;
84334;SDS011;74512;51.190;3.198;2023-12-07T04:40:25;59.50;;;22.60;;
84334;SDS011;74512;51.190;3.198;2023-12-07T04:42:51;90.53;;;27.30;;
84334;SDS011;74512;51.190;3.198;2023-12-07T04:45:17;24.13;;;10.73;;
84334;SDS011;74512;51.190;3.198;2023-12-07T04:47:42;37.78;;;15.20;;
84334;SDS011;74512;51.190;3.198;2023-12-07T04:50:08;51.47;;;17.02;;
84334;SDS011;74512;51.190;3.198;2023-12-07T04:52:35;36.67;;;14.98;;
84334;SDS011;74512;51.190;3.198;2023-12-07T04:55:01;42.58;;;16.77;;
84334;SDS011;74512;51.190;3.198;2023-12-07T04:57:26;45.45;;;15.85;;
84334;SDS011;74512;51.190;3.198;2023-12-07T04:59:52;45.78;;;16.75;;
84334;SDS011;74512;51.190;3.198;2023-12-07T05:02:18;44.78;;;16.40;;
84334;SDS011;74512;51.190;3.198;2023-12-07T05:04:44;44.83;;;16.55;;
84334;SDS011;74512;51.190;3.198;2023-12-07T05:07:13;42.15;;;15.73;;
84334;SDS011;74512;51.190;3.198;2023-12-07T05:09:39;37.85;;;16.77;;
84334;SDS011;74512;51.190;3.198;2023-12-07T05:12:05;35.65;;;14.75;;
84334;SDS011;74512;51.190;3.198;2023-12-07T05:14:31;35.33;;;14.65;;
84334;SDS011;74512;51.190;3.198;2023-12-07T05:16:57;40.80;;;15.48;;
84334;SDS011;74512;51.190;3.198;2023-12-07T05:19:23;40.25;;;15.65;;
84334;SDS011;74512;51.190;3.198;2023-12-07T05:21:49;45.42;;;17.88;;
84334;SDS011;74512;51.190;3.198;2023-12-07T05:24:16;34.03;;;13.73;;
84334;SDS011;74512;51.190;3.198;2023-12-07T05:26:42;40.53;;;15.52;;
84334;SDS011;74512;51.190;3.198;2023-12-07T05:29:08;30.75;;;13.27;;
84334;SDS011;74512;51.190;3.198;2023-12-07T05:31:35;38.70;;;14.63;;
84334;SDS011;74512;51.190;3.198;2023-12-07T05:34:01;37.53;;;14.88;;
84334;SDS011;74512;51.190;3.198;2023-12-07T05:36:27;30.58;;;12.85;;
84334;SDS011;74512;51.190;3.198;2023-12-07T05:38:53;37.13;;;14.82;;
84334;SDS011;74512;51.190;3.198;2023-12-07T05:41:18;41.42;;;15.77;;
84334;SDS011;74512;51.190;3.198;2023-12-07T05:43:44;37.35;;;16.60;;
84334;SDS011;74512;51.190;3.198;2023-12-07T05:46:10;31.48;;;13.13;;
84334;SDS011;74512;51.190;3.198;2023-12-07T05:48:36;34.67;;;14.05;;
84334;SDS011;74512;51.190;3.198;2023-12-07T05:51:02;36.72;;;15.07;;
84334;SDS011;74512;51.190;3.198;2023-12-07T05:53:27;37.78;;;15.63;;
84334;SDS011;74512;51.190;3.198;2023-12-07T05:55:56;36.00;;;16.10;;
84334;SDS011;74512;51.190;3.198;2023-12-07T05:58:22;37.03;;;15.20;;
84334;SDS011;74512;51.190;3.198;2023-12-07T06:00:48;38.42;;;16.83;;
84334;SDS011;74512;51.190;3.198;2023-12-07T06:03:14;37.97;;;15.77;;
84334;SDS011;74512;51.190;3.198;2023-12-07T06:05:40;34.45;;;13.65;;
84334;SDS011;74512;51.190;3.198;2023-12-07T06:08:06;36.78;;;16.23;;
84334;SDS011;74512;51.190;3.198;2023-12-07T06:10:32;36.88;;;15.30;;
84334;SDS011;74512;51.190;3.198;2023-12-07T06:12:58;35.83;;;15.73;;
84334;SDS011;74512;51.190;3.198;2023-12-07T06:15:26;22.08;;;9.05;;
84334;SDS011;74512;51.190;3.198;2023-12-07T06:17:52;34.40;;;16.40;;
84334;SDS011;74512;51.190;3.198;2023-12-07T06:20:19;41.92;;;17.98;;
84334;SDS011;74512;51.190;3.198;2023-12-07T06:22:45;37.10;;;15.57;;
84334;SDS011;74512;51.190;3.198;2023-12-07T06:25:10;44.88;;;19.10;;
84334;SDS011;74512;51.190;3.198;2023-12-07T06:27:36;25.33;;;12.98;;
84334;SDS011;74512;51.190;3.198;2023-12-07T06:30:03;21.83;;;10.02;;
84334;SDS011;74512;51.190;3.198;2023-12-07T06:32:31;32.42;;;14.70;;
84334;SDS011;74512;51.190;3.198;2023-12-07T06:34:57;18.27;;;7.10;;
84334;SDS011;74512;51.190;3.198;2023-12-07T06:37:23;32.45;;;14.98;;
84334;SDS011;74512;51.190;3.198;2023-12-07T06:39:48;31.65;;;15.73;;
84334;SDS011;74512;51.190;3.198;2023-12-07T06:42:14;23.63;;;12.07;;
84334;SDS011;74512;51.190;3.198;2023-12-07T06:44:40;34.40;;;16.40;;
84334;SDS011;74512;51.190;3.198;2023-12-07T06:47:07;32.40;;;16.25;;
84334;SDS011;74512;51.190;3.198;2023-12-07T06:49:34;32.95;;;16.50;;
84334;SDS011;74512;51.190;3.198;2023-12-07T06:52:01;38.58;;;17.48;;
84334;SDS011;74512;51.190;3.198;2023-12-07T06:54:26;38.50;;;17.67;;
84334;SDS011;74512;51.190;3.198;2023-12-07T06:56:52;43.88;;;22.65;;
84334;SDS011;74512;51.190;3.198;2023-12-07T06:59:18;37.58;;;17.13;;
84334;SDS011;74512;51.190;3.198;2023-12-07T07:01:45;36.15;;;17.90;;
84334;SDS011;74512;51.190;3.198;2023-12-07T07:04:10;31.85;;;16.10;;
84334;SDS011;74512;51.190;3.198;2023-12-07T07:06:36;33.30;;;15.55;;
84334;SDS011;74512;51.190;3.198;2023-12-07T07:09:03;34.33;;;17.38;;
84334;SDS011;74512;51.190;3.198;2023-12-07T07:11:30;23.27;;;11.27;;
84334;SDS011;74512;51.190;3.198;2023-12-07T07:13:55;27.77;;;14.00;;
84334;SDS011;74512;51.190;3.198;2023-12-07T07:16:21;30.80;;;14.45;;
84334;SDS011;74512;51.190;3.198;2023-12-07T07:18:47;35.78;;;16.27;;
84334;SDS011;74512;51.190;3.198;2023-12-07T07:21:12;34.22;;;17.60;;
84334;SDS011;74512;51.190;3.198;2023-12-07T07:23:38;28.40;;;14.18;;
84334;SDS011;74512;51.190;3.198;2023-12-07T07:26:03;28.58;;;14.23;;
84334;SDS011;74512;51.190;3.198;2023-12-07T07:28:29;26.63;;;13.85;;
84334;SDS011;74512;51.190;3.198;2023-12-07T07:30:55;28.88;;;14.40;;
84334;SDS011;74512;51.190;3.198;2023-12-07T07:33:21;22.23;;;12.45;;
84334;SDS011;74512;51.190;3.198;2023-12-07T07:35:46;30.70;;;14.18;;
84334;SDS011;74512;51.190;3.198;2023-12-07T07:38:12;33.25;;;14.65;;
84334;SDS011;74512;51.190;3.198;2023-12-07T07:40:39;26.15;;;11.68;;
84334;SDS011;74512;51.190;3.198;2023-12-07T07:43:05;30.77;;;13.48;;
84334;SDS011;74512;51.190;3.198;2023-12-07T07:45:30;37.55;;;16.83;;
84334;SDS011;74512;51.190;3.198;2023-12-07T07:47:56;26.88;;;14.07;;
84334;SDS011;74512;51.190;3.198;2023-12-07T07:50:21;20.75;;;10.07;;
84334;SDS011;74512;51.190;3.198;2023-12-07T07:52:47;26.83;;;12.27;;
84334;SDS011;74512;51.190;3.198;2023-12-07T07:55:13;32.60;;;15.38;;
84334;SDS011;74512;51.190;3.198;2023-12-07T07:57:38;33.17;;;15.43;;
84334;SDS011;74512;51.190;3.198;2023-12-07T08:00:04;36.47;;;16.40;;
84334;SDS011;74512;51.190;3.198;2023-12-07T08:02:33;35.67;;;15.32;;
84334;SDS011;74512;51.190;3.198;2023-12-07T08:04:59;35.45;;;15.82;;
84334;SDS011;74512;51.190;3.198;2023-12-07T08:07:24;38.65;;;16.60;;
84334;SDS011;74512;51.190;3.198;2023-12-07T08:09:50;38.30;;;17.50;;
84334;SDS011;74512;51.190;3.198;2023-12-07T08:12:16;37.92;;;17.02;;
84334;SDS011;74512;51.190;3.198;2023-12-07T08:14:41;31.30;;;14.07;;
84334;SDS011;74512;51.190;3.198;2023-12-07T08:17:08;33.38;;;17.08;;
84334;SDS011;74512;51.190;3.198;2023-12-07T08:19:34;38.10;;;17.92;;
84334;SDS011;74512;51.190;3.198;2023-12-07T08:22:00;32.38;;;14.63;;
84334;SDS011;74512;51.190;3.198;2023-12-07T08:24:26;33.08;;;15.55;;
84334;SDS011;74512;51.190;3.198;2023-12-07T08:26:51;31.85;;;14.75;;
84334;SDS011;74512;51.190;3.198;2023-12-07T08:29:17;32.13;;;15.05;;
84334;SDS011;74512;51.190;3.198;2023-12-07T08:31:43;37.70;;;16.15;;
84334;SDS011;74512;51.190;3.198;2023-12-07T08:34:09;24.35;;;11.38;;
84334;SDS011;74512;51.190;3.198;2023-12-07T08:36:34;34.97;;;15.93;;
84334;SDS011;74512;51.190;3.198;2023-12-07T08:39:00;36.25;;;15.60;;
84334;SDS011;74512;51.190;3.198;2023-12-07T08:41:26;29.70;;;14.00;;
84334;SDS011;74512;51.190;3.198;2023-12-07T08:43:51;33.63;;;14.60;;
84334;SDS011;74512;51.190;3.198;2023-12-07T08:46:17;30.10;;;15.00;;
84334;SDS011;74512;51.190;3.198;2023-12-07T08:48:42;33.38;;;17.00;;
84334;SDS011;74512;51.190;3.198;2023-12-07T08:51:08;38.67;;;15.50;;
84334;SDS011;74512;51.190;3.198;2023-12-07T08:53:34;36.97;;;17.25;;
84334;SDS011;74512;51.190;3.198;2023-12-07T08:56:01;35.17;;;15.63;;
84334;SDS011;74512;51.190;3.198;2023-12-07T08:58:26;36.45;;;15.35;;
84334;SDS011;74512;51.190;3.198;2023-12-07T09:00:52;32.25;;;14.82;;
84334;SDS011;74512;51.190;3.198;2023-12-07T09:03:18;32.20;;;14.93;;
84334;SDS011;74512;51.190;3.198;2023-12-07T09:05:43;30.75;;;14.07;;
84334;SDS011;74512;51.190;3.198;2023-12-07T09:08:09;35.92;;;15.02;;
84334;SDS011;74512;51.190;3.198;2023-12-07T09:10:35;30.33;;;15.05;;
84334;SDS011;74512;51.190;3.198;2023-12-07T09:13:00;32.40;;;15.23;;
84334;SDS011;74512;51.190;3.198;2023-12-07T09:15:26;31.88;;;15.05;;
84334;SDS011;74512;51.190;3.198;2023-12-07T09:17:52;37.30;;;16.85;;
84334;SDS011;74512;51.190;3.198;2023-12-07T09:20:17;33.63;;;16.30;;
84334;SDS011;74512;51.190;3.198;2023-12-07T09:22:43;29.70;;;14.13;;
84334;SDS011;74512;51.190;3.198;2023-12-07T09:25:10;34.38;;;17.90;;
84334;SDS011;74512;51.190;3.198;2023-12-07T09:27:37;35.50;;;17.58;;
84334;SDS011;74512;51.190;3.198;2023-12-07T09:30:08;34.50;;;16.88;;
84334;SDS011;74512;51.190;3.198;2023-12-07T09:32:38;32.55;;;16.30;;
84334;SDS011;74512;51.190;3.198;2023-12-07T09:35:05;39.15;;;17.65;;
84334;SDS011;74512;51.190;3.198;2023-12-07T09:37:32;30.70;;;15.82;;
84334;SDS011;74512;51.190;3.198;2023-12-07T09:39:58;31.88;;;15.30;;
84334;SDS011;74512;51.190;3.198;2023-12-07T09:42:24;33.30;;;15.02;;
84334;SDS011;74512;51.190;3.198;2023-12-07T09:44:50;32.42;;;14.75;;
84334;SDS011;74512;51.190;3.198;2023-12-07T09:47:16;29.35;;;14.93;;
84334;SDS011;74512;51.190;3.198;2023-12-07T09:49:41;36.45;;;17.08;;
84334;SDS011;74512;51.190;3.198;2023-12-07T09:52:07;32.20;;;14.88;;
84334;SDS011;74512;51.190;3.198;2023-12-07T09:54:33;37.80;;;14.43;;
84334;SDS011;74512;51.190;3.198;2023-12-07T09:57:00;29.85;;;13.43;;
84334;SDS011;74512;51.190;3.198;2023-12-07T09:59:26;26.65;;;11.15;;
84334;SDS011;74512;51.190;3.198;2023-12-07T10:01:52;27.83;;;14.43;;
84334;SDS011;74512;51.190;3.198;2023-12-07T10:04:21;31.42;;;14.90;;
84334;SDS011;74512;51.190;3.198;2023-12-07T10:06:51;28.05;;;13.85;;
84334;SDS011;74512;51.190;3.198;2023-12-07T10:09:17;23.85;;;11.60;;
84334;SDS011;74512;51.190;3.198;2023-12-07T10:11:46;26.55;;;12.45;;
84334;SDS011;74512;51.190;3.198;2023-12-07T10:14:13;28.00;;;13.98;;
84334;SDS011;74512;51.190;3.198;2023-12-07T10:16:40;29.92;;;12.75;;
84334;SDS011;74512;51.190;3.198;2023-12-07T10:19:20;21.98;;;12.55;;
84334;SDS011;74512;51.190;3.198;2023-12-07T10:21:49;24.67;;;13.98;;
84334;SDS011;74512;51.190;3.198;2023-12-07T10:24:16;32.33;;;16.02;;
84334;SDS011;74512;51.190;3.198;2023-12-07T10:26:47;29.05;;;14.63;;
84334;SDS011;74512;51.190;3.198;2023-12-07T10:29:13;29.05;;;14.20;;
84334;SDS011;74512;51.190;3.198;2023-12-07T10:31:39;22.35;;;12.02;;
84334;SDS011;74512;51.190;3.198;2023-12-07T10:34:05;29.35;;;13.80;;
84334;SDS011;74512;51.190;3.198;2023-12-07T10:36:31;27.10;;;13.35;;
84334;SDS011;74512;51.190;3.198;2023-12-07T10:38:57;29.52;;;14.25;;
84334;SDS011;74512;51.190;3.198;2023-12-07T10:41:24;26.63;;;14.50;;
84334;SDS011;74512;51.190;3.198;2023-12-07T10:43:53;26.48;;;15.13;;
84334;SDS011;74512;51.190;3.198;2023-12-07T10:46:22;26.98;;;13.23;;
84334;SDS011;74512;51.190;3.198;2023-12-07T10:48:48;23.70;;;12.80;;
84334;SDS011;74512;51.190;3.198;2023-12-07T10:52:06;23.55;;;12.40;;
84334;SDS011;74512;51.190;3.198;2023-12-07T10:54:27;26.85;;;12.95;;
84334;SDS011;74512;51.190;3.198;2023-12-07T10:57:00;27.50;;;12.98;;
84334;SDS011;74512;51.190;3.198;2023-12-07T10:59:30;27.55;;;14.38;;
84334;SDS011;74512;51.190;3.198;2023-12-07T11:01:57;22.08;;;12.52;;
84334;SDS011;74512;51.190;3.198;2023-12-07T11:04:23;21.42;;;11.13;;
84334;SDS011;74512;51.190;3.198;2023-12-07T11:06:50;25.20;;;13.27;;
84334;SDS011;74512;51.190;3.198;2023-12-07T11:09:21;25.45;;;12.60;;
84334;SDS011;74512;51.190;3.198;2023-12-07T11:12:05;27.27;;;11.25;;
84334;SDS011;74512;51.190;3.198;2023-12-07T11:14:37;29.48;;;14.13;;
84334;SDS011;74512;51.190;3.198;2023-12-07T11:17:04;23.13;;;12.15;;
84334;SDS011;74512;51.190;3.198;2023-12-07T11:21:59;23.40;;;10.30;;
84334;SDS011;74512;51.190;3.198;2023-12-07T11:24:25;29.33;;;14.18;;
84334;SDS011;74512;51.190;3.198;2023-12-07T11:26:57;27.60;;;13.73;;
84334;SDS011;74512;51.190;3.198;2023-12-07T11:29:28;17.80;;;10.85;;
84334;SDS011;74512;51.190;3.198;2023-12-07T11:32:00;23.35;;;12.13;;
84334;SDS011;74512;51.190;3.198;2023-12-07T11:34:38;19.30;;;11.02;;
84334;SDS011;74512;51.190;3.198;2023-12-07T11:37:09;20.27;;;10.30;;
84334;SDS011;74512;51.190;3.198;2023-12-07T11:39:39;20.97;;;10.87;;
84334;SDS011;74512;51.190;3.198;2023-12-07T11:42:12;17.98;;;11.05;;
84334;SDS011;74512;51.190;3.198;2023-12-07T11:44:41;28.05;;;12.23;;
84334;SDS011;74512;51.190;3.198;2023-12-07T11:47:08;25.33;;;12.07;;
84334;SDS011;74512;51.190;3.198;2023-12-07T11:49:35;20.30;;;11.05;;
84334;SDS011;74512;51.190;3.198;2023-12-07T11:52:01;27.40;;;12.38;;
84334;SDS011;74512;51.190;3.198;2023-12-07T11:54:46;23.13;;;13.60;;
84334;SDS011;74512;51.190;3.198;2023-12-07T11:57:13;23.15;;;11.88;;
84334;SDS011;74512;51.190;3.198;2023-12-07T11:59:41;20.98;;;11.35;;
84334;SDS011;74512;51.190;3.198;2023-12-07T12:02:09;26.08;;;13.50;;
84334;SDS011;74512;51.190;3.198;2023-12-07T12:04:40;25.85;;;11.43;;
84334;SDS011;74512;51.190;3.198;2023-12-07T12:07:06;19.02;;;9.07;;
84334;SDS011;74512;51.190;3.198;2023-12-07T12:09:31;16.80;;;9.90;;
84334;SDS011;74512;51.190;3.198;2023-12-07T12:11:59;19.17;;;10.73;;
84334;SDS011;74512;51.190;3.198;2023-12-07T12:14:25;25.48;;;12.43;;
84334;SDS011;74512;51.190;3.198;2023-12-07T12:16:52;22.23;;;10.65;;
84334;SDS011;74512;51.190;3.198;2023-12-07T12:19:18;20.92;;;10.57;;
84334;SDS011;74512;51.190;3.198;2023-12-07T12:21:45;23.17;;;10.07;;
84334;SDS011;74512;51.190;3.198;2023-12-07T12:24:11;21.42;;;10.63;;
84334;SDS011;74512;51.190;3.198;2023-12-07T12:26:39;16.70;;;9.25;;
84334;SDS011;74512;51.190;3.198;2023-12-07T12:29:06;25.95;;;12.55;;
84334;SDS011;74512;51.190;3.198;2023-12-07T12:31:33;15.68;;;8.38;;
84334;SDS011;74512;51.190;3.198;2023-12-07T12:34:03;21.42;;;10.57;;
84334;SDS011;74512;51.190;3.198;2023-12-07T12:36:32;17.33;;;9.30;;
84334;SDS011;74512;51.190;3.198;2023-12-07T12:38:58;16.30;;;8.77;;
84334;SDS011;74512;51.190;3.198;2023-12-07T12:41:24;21.08;;;10.35;;
84334;SDS011;74512;51.190;3.198;2023-12-07T12:43:51;21.38;;;9.32;;
84334;SDS011;74512;51.190;3.198;2023-12-07T12:46:17;12.95;;;7.63;;
84334;SDS011;74512;51.190;3.198;2023-12-07T12:48:59;7.97;;;5.45;;
84334;SDS011;74512;51.190;3.198;2023-12-07T12:51:26;19.83;;;7.75;;
84334;SDS011;74512;51.190;3.198;2023-12-07T12:53:54;12.45;;;7.07;;
84334;SDS011;74512;51.190;3.198;2023-12-07T12:56:21;14.93;;;7.65;;
84334;SDS011;74512;51.190;3.198;2023-12-07T12:58:51;11.43;;;6.55;;
84334;SDS011;74512;51.190;3.198;2023-12-07T13:01:21;13.70;;;8.13;;
84334;SDS011;74512;51.190;3.198;2023-12-07T13:03:47;15.65;;;9.30;;
84334;SDS011;74512;51.190;3.198;2023-12-07T13:06:13;13.48;;;7.45;;
84334;SDS011;74512;51.190;3.198;2023-12-07T13:08:40;13.60;;;6.38;;
84334;SDS011;74512;51.190;3.198;2023-12-07T13:11:06;16.50;;;9.20;;
84334;SDS011;74512;51.190;3.198;2023-12-07T13:13:32;20.02;;;9.25;;
84334;SDS011;74512;51.190;3.198;2023-12-07T13:15:58;16.08;;;7.80;;
84334;SDS011;74512;51.190;3.198;2023-12-07T13:18:23;14.02;;;8.48;;
84334;SDS011;74512;51.190;3.198;2023-12-07T13:20:49;13.82;;;7.85;;
84334;SDS011;74512;51.190;3.198;2023-12-07T13:23:14;14.88;;;8.32;;
84334;SDS011;74512;51.190;3.198;2023-12-07T13:25:40;13.45;;;7.30;;
84334;SDS011;74512;51.190;3.198;2023-12-07T13:28:06;17.40;;;8.77;;
84334;SDS011;74512;51.190;3.198;2023-12-07T13:30:33;12.23;;;6.93;;
84334;SDS011;74512;51.190;3.198;2023-12-07T13:33:00;16.77;;;6.93;;
84334;SDS011;74512;51.190;3.198;2023-12-07T13:35:26;12.60;;;6.28;;
84334;SDS011;74512;51.190;3.198;2023-12-07T13:37:52;12.38;;;7.68;;
84334;SDS011;74512;51.190;3.198;2023-12-07T13:40:18;11.38;;;6.55;;
84334;SDS011;74512;51.190;3.198;2023-12-07T13:42:43;15.13;;;7.93;;
84334;SDS011;74512;51.190;3.198;2023-12-07T13:45:09;14.13;;;8.10;;
84334;SDS011;74512;51.190;3.198;2023-12-07T13:47:35;19.25;;;8.80;;
84334;SDS011;74512;51.190;3.198;2023-12-07T13:50:03;12.68;;;7.75;;
84334;SDS011;74512;51.190;3.198;2023-12-07T13:52:30;12.07;;;8.13;;
84334;SDS011;74512;51.190;3.198;2023-12-07T13:54:56;14.65;;;8.32;;
84334;SDS011;74512;51.190;3.198;2023-12-07T13:57:22;13.98;;;8.40;;
84334;SDS011;74512;51.190;3.198;2023-12-07T13:59:52;12.52;;;7.18;;
84334;SDS011;74512;51.190;3.198;2023-12-07T14:02:21;12.32;;;7.32;;
84334;SDS011;74512;51.190;3.198;2023-12-07T14:04:47;14.82;;;8.40;;
84334;SDS011;74512;51.190;3.198;2023-12-07T14:07:18;13.15;;;6.90;;
84334;SDS011;74512;51.190;3.198;2023-12-07T14:09:46;13.55;;;7.65;;
84334;SDS011;74512;51.190;3.198;2023-12-07T14:12:13;17.08;;;8.73;;
84334;SDS011;74512;51.190;3.198;2023-12-07T14:14:42;16.83;;;9.75;;
84334;SDS011;74512;51.190;3.198;2023-12-07T14:17:12;15.15;;;9.05;;
84334;SDS011;74512;51.190;3.198;2023-12-07T14:19:38;13.60;;;7.05;;
84334;SDS011;74512;51.190;3.198;2023-12-07T14:22:04;13.45;;;7.38;;
84334;SDS011;74512;51.190;3.198;2023-12-07T14:24:30;13.48;;;7.40;;
84334;SDS011;74512;51.190;3.198;2023-12-07T14:26:57;14.75;;;8.27;;